Terminal Aerodrome Forecast
Issued by NWS Wilmington, OH

Current Version | Previous Version | Graphics & Text | Print | Product List | Glossary On
Versions: 1 2 3 4 5 6 7 8 9 10 11 12 13 14 15 16 17 18 19 20 21 22 23
727
FTUS41 KILN 312121 AAB
TAFCVG
TAF AMD
KCVG 312121Z 3121/0124 VRB06KT P6SM VCSH SCT070 BKN250
     FM010000 VRB04KT P6SM SCT150 BKN200
     FM011400 15006KT P6SM SCT150
     FM011800 19006KT P6SM BKN040 BKN150=

USA.gov is the U.S. government's official web portal to all federal, state and local government web resources and services.